sensor_id;sensor_type;location;lat;lon;timestamp;P1;durP1;ratioP1;P2;durP2;ratioP2
14209;SDS011;7188;56.070;12.698;2022-07-03T00:00:47;1.13;;;0.80;;
14209;SDS011;7188;56.070;12.698;2022-07-03T00:03:13;3.00;;;1.33;;
14209;SDS011;7188;56.070;12.698;2022-07-03T00:05:38;1.43;;;1.10;;
14209;SDS011;7188;56.070;12.698;2022-07-03T00:08:04;2.53;;;0.90;;
14209;SDS011;7188;56.070;12.698;2022-07-03T00:10:30;2.97;;;1.10;;
14209;SDS011;7188;56.070;12.698;2022-07-03T00:12:56;4.13;;;0.80;;
14209;SDS011;7188;56.070;12.698;2022-07-03T00:15:21;6.80;;;1.50;;
14209;SDS011;7188;56.070;12.698;2022-07-03T00:17:47;3.87;;;1.40;;
14209;SDS011;7188;56.070;12.698;2022-07-03T00:20:13;2.37;;;1.40;;
14209;SDS011;7188;56.070;12.698;2022-07-03T00:22:40;2.77;;;1.20;;
14209;SDS011;7188;56.070;12.698;2022-07-03T00:25:08;4.53;;;1.20;;
14209;SDS011;7188;56.070;12.698;2022-07-03T00:27:36;1.77;;;0.93;;
14209;SDS011;7188;56.070;12.698;2022-07-03T00:30:04;1.73;;;1.13;;
14209;SDS011;7188;56.070;12.698;2022-07-03T00:32:33;2.83;;;1.23;;
14209;SDS011;7188;56.070;12.698;2022-07-03T00:35:02;3.07;;;1.53;;
14209;SDS011;7188;56.070;12.698;2022-07-03T00:37:28;3.00;;;1.20;;
14209;SDS011;7188;56.070;12.698;2022-07-03T00:39:54;2.13;;;1.50;;
14209;SDS011;7188;56.070;12.698;2022-07-03T00:42:22;4.40;;;1.30;;
14209;SDS011;7188;56.070;12.698;2022-07-03T00:44:49;3.13;;;1.80;;
14209;SDS011;7188;56.070;12.698;2022-07-03T00:47:17;5.13;;;1.90;;
14209;SDS011;7188;56.070;12.698;2022-07-03T00:49:46;2.17;;;1.60;;
14209;SDS011;7188;56.070;12.698;2022-07-03T00:52:14;3.00;;;1.60;;
14209;SDS011;7188;56.070;12.698;2022-07-03T00:54:59;3.33;;;1.57;;
14209;SDS011;7188;56.070;12.698;2022-07-03T00:57:27;1.93;;;1.47;;
14209;SDS011;7188;56.070;12.698;2022-07-03T00:59:54;2.70;;;1.67;;
14209;SDS011;7188;56.070;12.698;2022-07-03T01:07:39;2.93;;;1.40;;
14209;SDS011;7188;56.070;12.698;2022-07-03T01:15:41;3.97;;;1.50;;
14209;SDS011;7188;56.070;12.698;2022-07-03T01:26:44;4.17;;;1.73;;
14209;SDS011;7188;56.070;12.698;2022-07-03T01:29:18;3.73;;;2.00;;
14209;SDS011;7188;56.070;12.698;2022-07-03T01:31:54;2.13;;;1.63;;
14209;SDS011;7188;56.070;12.698;2022-07-03T01:34:22;1.73;;;1.63;;
14209;SDS011;7188;56.070;12.698;2022-07-03T01:36:54;4.23;;;1.43;;
14209;SDS011;7188;56.070;12.698;2022-07-03T01:39:26;3.27;;;1.90;;
14209;SDS011;7188;56.070;12.698;2022-07-03T01:41:53;2.73;;;1.60;;
14209;SDS011;7188;56.070;12.698;2022-07-03T01:44:20;2.03;;;1.33;;
14209;SDS011;7188;56.070;12.698;2022-07-03T01:46:49;4.03;;;1.00;;
14209;SDS011;7188;56.070;12.698;2022-07-03T01:49:18;3.70;;;1.47;;
14209;SDS011;7188;56.070;12.698;2022-07-03T01:51:44;1.60;;;1.50;;
14209;SDS011;7188;56.070;12.698;2022-07-03T01:54:14;2.70;;;1.17;;
14209;SDS011;7188;56.070;12.698;2022-07-03T01:56:40;2.10;;;1.43;;
14209;SDS011;7188;56.070;12.698;2022-07-03T01:59:06;1.30;;;1.20;;
14209;SDS011;7188;56.070;12.698;2022-07-03T02:04:04;4.20;;;1.50;;
14209;SDS011;7188;56.070;12.698;2022-07-03T02:06:45;3.77;;;1.60;;
14209;SDS011;7188;56.070;12.698;2022-07-03T02:09:19;2.17;;;1.33;;
14209;SDS011;7188;56.070;12.698;2022-07-03T02:11:52;2.40;;;1.30;;
14209;SDS011;7188;56.070;12.698;2022-07-03T02:14:19;1.80;;;1.20;;
14209;SDS011;7188;56.070;12.698;2022-07-03T02:22:09;1.37;;;1.13;;
14209;SDS011;7188;56.070;12.698;2022-07-03T02:24:41;2.57;;;1.30;;
14209;SDS011;7188;56.070;12.698;2022-07-03T02:27:19;2.03;;;1.00;;
14209;SDS011;7188;56.070;12.698;2022-07-03T02:29:47;1.83;;;1.10;;
14209;SDS011;7188;56.070;12.698;2022-07-03T02:32:20;1.73;;;1.23;;
14209;SDS011;7188;56.070;12.698;2022-07-03T02:35:11;2.80;;;1.07;;
14209;SDS011;7188;56.070;12.698;2022-07-03T02:37:47;1.80;;;1.10;;
14209;SDS011;7188;56.070;12.698;2022-07-03T02:40:54;2.03;;;1.40;;
14209;SDS011;7188;56.070;12.698;2022-07-03T02:43:33;1.30;;;1.17;;
14209;SDS011;7188;56.070;12.698;2022-07-03T02:46:20;3.47;;;1.27;;
14209;SDS011;7188;56.070;12.698;2022-07-03T02:51:35;5.63;;;1.90;;
14209;SDS011;7188;56.070;12.698;2022-07-03T02:54:13;4.97;;;1.80;;
14209;SDS011;7188;56.070;12.698;2022-07-03T03:05:03;2.87;;;1.50;;
14209;SDS011;7188;56.070;12.698;2022-07-03T03:10:41;4.67;;;1.37;;
14209;SDS011;7188;56.070;12.698;2022-07-03T03:13:10;3.50;;;1.43;;
14209;SDS011;7188;56.070;12.698;2022-07-03T03:15:37;3.17;;;1.40;;
14209;SDS011;7188;56.070;12.698;2022-07-03T03:18:05;1.87;;;1.60;;
14209;SDS011;7188;56.070;12.698;2022-07-03T03:20:36;2.07;;;1.70;;
14209;SDS011;7188;56.070;12.698;2022-07-03T03:25:41;2.73;;;1.70;;
14209;SDS011;7188;56.070;12.698;2022-07-03T03:28:07;3.87;;;1.50;;
14209;SDS011;7188;56.070;12.698;2022-07-03T03:30:34;3.73;;;1.43;;
14209;SDS011;7188;56.070;12.698;2022-07-03T03:33:01;2.53;;;1.30;;
14209;SDS011;7188;56.070;12.698;2022-07-03T03:35:28;3.47;;;1.80;;
14209;SDS011;7188;56.070;12.698;2022-07-03T03:37:54;4.37;;;1.70;;
14209;SDS011;7188;56.070;12.698;2022-07-03T03:40:20;2.50;;;1.27;;
14209;SDS011;7188;56.070;12.698;2022-07-03T03:42:45;3.60;;;1.47;;
14209;SDS011;7188;56.070;12.698;2022-07-03T03:45:11;4.53;;;2.00;;
14209;SDS011;7188;56.070;12.698;2022-07-03T03:47:37;2.30;;;1.17;;
14209;SDS011;7188;56.070;12.698;2022-07-03T03:50:03;3.77;;;1.63;;
14209;SDS011;7188;56.070;12.698;2022-07-03T03:52:29;4.60;;;1.40;;
14209;SDS011;7188;56.070;12.698;2022-07-03T03:54:55;3.07;;;1.50;;
14209;SDS011;7188;56.070;12.698;2022-07-03T03:57:22;5.30;;;2.13;;
14209;SDS011;7188;56.070;12.698;2022-07-03T03:59:48;2.07;;;1.30;;
14209;SDS011;7188;56.070;12.698;2022-07-03T04:02:15;3.97;;;1.27;;
14209;SDS011;7188;56.070;12.698;2022-07-03T04:04:41;1.27;;;1.00;;
14209;SDS011;7188;56.070;12.698;2022-07-03T04:07:07;4.07;;;1.10;;
14209;SDS011;7188;56.070;12.698;2022-07-03T04:09:33;3.03;;;1.40;;
14209;SDS011;7188;56.070;12.698;2022-07-03T04:11:59;3.60;;;1.33;;
14209;SDS011;7188;56.070;12.698;2022-07-03T04:14:25;3.13;;;1.07;;
14209;SDS011;7188;56.070;12.698;2022-07-03T04:16:51;1.50;;;1.33;;
14209;SDS011;7188;56.070;12.698;2022-07-03T04:19:17;2.00;;;1.10;;
14209;SDS011;7188;56.070;12.698;2022-07-03T04:21:42;2.77;;;1.13;;
14209;SDS011;7188;56.070;12.698;2022-07-03T04:24:08;2.33;;;1.30;;
14209;SDS011;7188;56.070;12.698;2022-07-03T04:26:34;2.70;;;1.10;;
14209;SDS011;7188;56.070;12.698;2022-07-03T04:28:59;4.97;;;1.40;;
14209;SDS011;7188;56.070;12.698;2022-07-03T04:31:25;1.57;;;1.00;;
14209;SDS011;7188;56.070;12.698;2022-07-03T04:33:51;1.87;;;0.97;;
14209;SDS011;7188;56.070;12.698;2022-07-03T04:36:17;2.40;;;1.10;;
14209;SDS011;7188;56.070;12.698;2022-07-03T04:38:43;4.07;;;1.27;;
14209;SDS011;7188;56.070;12.698;2022-07-03T04:41:09;2.90;;;1.47;;
14209;SDS011;7188;56.070;12.698;2022-07-03T04:43:35;3.50;;;1.43;;
14209;SDS011;7188;56.070;12.698;2022-07-03T04:46:01;2.93;;;1.00;;
14209;SDS011;7188;56.070;12.698;2022-07-03T04:48:28;1.33;;;1.10;;
14209;SDS011;7188;56.070;12.698;2022-07-03T04:50:54;1.93;;;1.00;;
14209;SDS011;7188;56.070;12.698;2022-07-03T04:53:21;1.23;;;1.10;;
14209;SDS011;7188;56.070;12.698;2022-07-03T04:55:46;0.73;;;0.70;;
14209;SDS011;7188;56.070;12.698;2022-07-03T04:58:12;1.43;;;0.90;;
14209;SDS011;7188;56.070;12.698;2022-07-03T05:00:38;2.50;;;1.27;;
14209;SDS011;7188;56.070;12.698;2022-07-03T05:03:05;1.90;;;1.30;;
14209;SDS011;7188;56.070;12.698;2022-07-03T05:05:31;1.63;;;1.00;;
14209;SDS011;7188;56.070;12.698;2022-07-03T05:07:58;2.17;;;1.20;;
14209;SDS011;7188;56.070;12.698;2022-07-03T05:10:25;6.50;;;1.20;;
14209;SDS011;7188;56.070;12.698;2022-07-03T05:12:51;1.53;;;1.10;;
14209;SDS011;7188;56.070;12.698;2022-07-03T05:15:16;2.93;;;1.20;;
14209;SDS011;7188;56.070;12.698;2022-07-03T05:17:42;2.93;;;1.10;;
14209;SDS011;7188;56.070;12.698;2022-07-03T05:20:09;16.00;;;1.53;;
14209;SDS011;7188;56.070;12.698;2022-07-03T05:23:08;1.20;;;1.10;;
14209;SDS011;7188;56.070;12.698;2022-07-03T05:25:33;3.23;;;1.60;;
14209;SDS011;7188;56.070;12.698;2022-07-03T05:28:00;3.10;;;1.10;;
14209;SDS011;7188;56.070;12.698;2022-07-03T05:30:26;2.57;;;1.30;;
14209;SDS011;7188;56.070;12.698;2022-07-03T05:32:52;5.10;;;1.40;;
14209;SDS011;7188;56.070;12.698;2022-07-03T05:35:18;4.67;;;1.30;;
14209;SDS011;7188;56.070;12.698;2022-07-03T05:37:45;4.97;;;1.37;;
14209;SDS011;7188;56.070;12.698;2022-07-03T05:40:10;2.93;;;1.17;;
14209;SDS011;7188;56.070;12.698;2022-07-03T05:42:36;2.60;;;1.30;;
14209;SDS011;7188;56.070;12.698;2022-07-03T05:45:02;3.50;;;1.23;;
14209;SDS011;7188;56.070;12.698;2022-07-03T05:47:28;1.10;;;1.07;;
14209;SDS011;7188;56.070;12.698;2022-07-03T05:49:54;5.70;;;1.50;;
14209;SDS011;7188;56.070;12.698;2022-07-03T05:52:19;1.77;;;1.13;;
14209;SDS011;7188;56.070;12.698;2022-07-03T05:54:45;3.07;;;1.10;;
14209;SDS011;7188;56.070;12.698;2022-07-03T05:57:11;3.77;;;1.27;;
14209;SDS011;7188;56.070;12.698;2022-07-03T05:59:37;3.60;;;1.43;;
14209;SDS011;7188;56.070;12.698;2022-07-03T06:02:03;3.87;;;1.30;;
14209;SDS011;7188;56.070;12.698;2022-07-03T06:04:29;2.13;;;1.40;;
14209;SDS011;7188;56.070;12.698;2022-07-03T06:06:55;2.87;;;1.23;;
14209;SDS011;7188;56.070;12.698;2022-07-03T06:09:24;3.83;;;1.50;;
14209;SDS011;7188;56.070;12.698;2022-07-03T06:11:50;2.33;;;1.37;;
14209;SDS011;7188;56.070;12.698;2022-07-03T06:14:17;4.25;;;1.48;;
14209;SDS011;7188;56.070;12.698;2022-07-03T06:16:43;2.33;;;1.33;;
14209;SDS011;7188;56.070;12.698;2022-07-03T06:19:08;3.73;;;1.00;;
14209;SDS011;7188;56.070;12.698;2022-07-03T06:21:34;3.37;;;1.50;;
14209;SDS011;7188;56.070;12.698;2022-07-03T06:24:00;3.30;;;1.53;;
14209;SDS011;7188;56.070;12.698;2022-07-03T06:26:26;5.43;;;1.60;;
14209;SDS011;7188;56.070;12.698;2022-07-03T06:28:54;3.57;;;1.60;;
14209;SDS011;7188;56.070;12.698;2022-07-03T06:31:19;3.23;;;1.30;;
14209;SDS011;7188;56.070;12.698;2022-07-03T06:33:45;3.80;;;1.80;;
14209;SDS011;7188;56.070;12.698;2022-07-03T06:36:11;1.65;;;1.20;;
14209;SDS011;7188;56.070;12.698;2022-07-03T06:38:36;5.53;;;1.50;;
14209;SDS011;7188;56.070;12.698;2022-07-03T06:41:02;3.30;;;1.58;;
14209;SDS011;7188;56.070;12.698;2022-07-03T06:43:28;3.23;;;1.77;;
14209;SDS011;7188;56.070;12.698;2022-07-03T06:46:11;3.15;;;1.50;;
14209;SDS011;7188;56.070;12.698;2022-07-03T06:48:37;5.43;;;1.90;;
14209;SDS011;7188;56.070;12.698;2022-07-03T06:51:03;8.23;;;2.45;;
14209;SDS011;7188;56.070;12.698;2022-07-03T06:53:28;2.35;;;1.63;;
14209;SDS011;7188;56.070;12.698;2022-07-03T06:55:54;5.78;;;1.58;;
14209;SDS011;7188;56.070;12.698;2022-07-03T06:58:20;2.80;;;1.50;;
14209;SDS011;7188;56.070;12.698;2022-07-03T07:00:46;1.63;;;1.52;;
14209;SDS011;7188;56.070;12.698;2022-07-03T07:03:12;1.75;;;1.27;;
14209;SDS011;7188;56.070;12.698;2022-07-03T07:05:37;4.05;;;1.23;;
14209;SDS011;7188;56.070;12.698;2022-07-03T07:08:03;2.28;;;1.63;;
14209;SDS011;7188;56.070;12.698;2022-07-03T07:10:29;7.63;;;1.70;;
14209;SDS011;7188;56.070;12.698;2022-07-03T07:12:54;3.70;;;1.55;;
14209;SDS011;7188;56.070;12.698;2022-07-03T07:15:20;4.85;;;1.30;;
14209;SDS011;7188;56.070;12.698;2022-07-03T07:17:46;2.17;;;1.60;;
14209;SDS011;7188;56.070;12.698;2022-07-03T07:20:11;7.50;;;1.90;;
14209;SDS011;7188;56.070;12.698;2022-07-03T07:22:37;3.78;;;1.45;;
14209;SDS011;7188;56.070;12.698;2022-07-03T07:25:03;2.60;;;1.42;;
14209;SDS011;7188;56.070;12.698;2022-07-03T07:27:29;2.05;;;1.40;;
14209;SDS011;7188;56.070;12.698;2022-07-03T07:29:54;9.35;;;1.45;;
14209;SDS011;7188;56.070;12.698;2022-07-03T07:32:20;3.70;;;1.60;;
14209;SDS011;7188;56.070;12.698;2022-07-03T07:34:45;1.38;;;1.27;;
14209;SDS011;7188;56.070;12.698;2022-07-03T07:37:11;1.88;;;1.63;;
14209;SDS011;7188;56.070;12.698;2022-07-03T07:39:37;1.30;;;1.20;;
14209;SDS011;7188;56.070;12.698;2022-07-03T07:42:02;2.25;;;1.50;;
14209;SDS011;7188;56.070;12.698;2022-07-03T07:44:28;2.08;;;1.45;;
14209;SDS011;7188;56.070;12.698;2022-07-03T07:46:54;3.95;;;1.85;;
14209;SDS011;7188;56.070;12.698;2022-07-03T07:49:19;2.00;;;1.90;;
14209;SDS011;7188;56.070;12.698;2022-07-03T07:51:45;1.35;;;1.10;;
14209;SDS011;7188;56.070;12.698;2022-07-03T07:54:11;1.73;;;1.63;;
14209;SDS011;7188;56.070;12.698;2022-07-03T07:56:36;4.38;;;1.77;;
14209;SDS011;7188;56.070;12.698;2022-07-03T07:59:02;1.35;;;1.35;;
14209;SDS011;7188;56.070;12.698;2022-07-03T08:01:28;1.48;;;1.30;;
14209;SDS011;7188;56.070;12.698;2022-07-03T08:04:12;2.38;;;1.60;;
14209;SDS011;7188;56.070;12.698;2022-07-03T08:06:56;4.88;;;1.80;;
14209;SDS011;7188;56.070;12.698;2022-07-03T08:09:22;2.17;;;1.45;;
14209;SDS011;7188;56.070;12.698;2022-07-03T08:11:47;2.63;;;1.58;;
14209;SDS011;7188;56.070;12.698;2022-07-03T08:14:13;5.80;;;1.92;;
14209;SDS011;7188;56.070;12.698;2022-07-03T08:16:39;2.85;;;1.60;;
14209;SDS011;7188;56.070;12.698;2022-07-03T08:19:05;3.78;;;1.90;;
14209;SDS011;7188;56.070;12.698;2022-07-03T08:21:32;3.33;;;1.63;;
14209;SDS011;7188;56.070;12.698;2022-07-03T08:24:06;2.03;;;1.55;;
14209;SDS011;7188;56.070;12.698;2022-07-03T08:26:32;4.00;;;1.60;;
14209;SDS011;7188;56.070;12.698;2022-07-03T08:28:58;2.97;;;1.92;;
14209;SDS011;7188;56.070;12.698;2022-07-03T08:31:24;3.25;;;1.67;;
14209;SDS011;7188;56.070;12.698;2022-07-03T08:33:49;4.53;;;2.20;;
14209;SDS011;7188;56.070;12.698;2022-07-03T08:36:15;4.13;;;1.67;;
14209;SDS011;7188;56.070;12.698;2022-07-03T08:38:41;5.55;;;2.15;;
14209;SDS011;7188;56.070;12.698;2022-07-03T08:41:07;1.80;;;1.70;;
14209;SDS011;7188;56.070;12.698;2022-07-03T08:43:34;2.13;;;1.80;;
14209;SDS011;7188;56.070;12.698;2022-07-03T08:46:01;2.13;;;1.60;;
14209;SDS011;7188;56.070;12.698;2022-07-03T08:48:28;6.53;;;1.63;;
14209;SDS011;7188;56.070;12.698;2022-07-03T08:50:54;1.70;;;1.55;;
14209;SDS011;7188;56.070;12.698;2022-07-03T08:53:23;5.22;;;1.75;;
14209;SDS011;7188;56.070;12.698;2022-07-03T08:55:49;1.65;;;1.42;;
14209;SDS011;7188;56.070;12.698;2022-07-03T08:58:15;2.15;;;1.70;;
14209;SDS011;7188;56.070;12.698;2022-07-03T09:00:44;1.48;;;1.38;;
14209;SDS011;7188;56.070;12.698;2022-07-03T09:03:10;3.47;;;1.83;;
14209;SDS011;7188;56.070;12.698;2022-07-03T09:05:37;2.47;;;1.48;;
14209;SDS011;7188;56.070;12.698;2022-07-03T09:08:06;4.70;;;1.60;;
14209;SDS011;7188;56.070;12.698;2022-07-03T09:10:32;3.72;;;1.85;;
14209;SDS011;7188;56.070;12.698;2022-07-03T09:12:58;1.77;;;1.67;;
14209;SDS011;7188;56.070;12.698;2022-07-03T09:15:24;8.68;;;1.77;;
14209;SDS011;7188;56.070;12.698;2022-07-03T09:20:33;17.58;;;2.88;;
14209;SDS011;7188;56.070;12.698;2022-07-03T09:23:14;10.00;;;1.95;;
14209;SDS011;7188;56.070;12.698;2022-07-03T09:28:22;6.82;;;1.95;;
14209;SDS011;7188;56.070;12.698;2022-07-03T09:30:59;5.68;;;2.00;;
14209;SDS011;7188;56.070;12.698;2022-07-03T09:33:26;5.25;;;1.77;;
14209;SDS011;7188;56.070;12.698;2022-07-03T09:35:52;2.75;;;1.45;;
14209;SDS011;7188;56.070;12.698;2022-07-03T09:38:20;3.50;;;1.77;;
14209;SDS011;7188;56.070;12.698;2022-07-03T09:40:53;2.72;;;1.45;;
14209;SDS011;7188;56.070;12.698;2022-07-03T09:43:24;3.55;;;1.90;;
14209;SDS011;7188;56.070;12.698;2022-07-03T09:48:28;16.08;;;2.42;;
14209;SDS011;7188;56.070;12.698;2022-07-03T09:53:54;2.70;;;1.80;;
14209;SDS011;7188;56.070;12.698;2022-07-03T10:01:31;2.65;;;1.45;;
14209;SDS011;7188;56.070;12.698;2022-07-03T10:04:10;2.10;;;1.60;;
14209;SDS011;7188;56.070;12.698;2022-07-03T10:06:57;6.18;;;2.17;;
14209;SDS011;7188;56.070;12.698;2022-07-03T10:09:27;4.18;;;1.77;;
14209;SDS011;7188;56.070;12.698;2022-07-03T10:11:57;1.50;;;1.40;;
14209;SDS011;7188;56.070;12.698;2022-07-03T10:14:25;10.48;;;2.50;;
14209;SDS011;7188;56.070;12.698;2022-07-03T10:16:52;2.05;;;1.77;;
14209;SDS011;7188;56.070;12.698;2022-07-03T10:19:18;9.70;;;2.25;;
14209;SDS011;7188;56.070;12.698;2022-07-03T10:21:52;3.00;;;1.80;;
14209;SDS011;7188;56.070;12.698;2022-07-03T10:24:24;3.63;;;1.60;;
14209;SDS011;7188;56.070;12.698;2022-07-03T10:26:51;2.20;;;1.92;;
14209;SDS011;7188;56.070;12.698;2022-07-03T10:29:20;2.53;;;1.70;;
14209;SDS011;7188;56.070;12.698;2022-07-03T10:31:47;3.83;;;2.03;;
14209;SDS011;7188;56.070;12.698;2022-07-03T10:34:17;2.33;;;1.58;;
14209;SDS011;7188;56.070;12.698;2022-07-03T10:36:49;1.95;;;1.40;;
14209;SDS011;7188;56.070;12.698;2022-07-03T10:39:23;2.10;;;1.75;;
14209;SDS011;7188;56.070;12.698;2022-07-03T10:41:53;3.50;;;2.20;;
14209;SDS011;7188;56.070;12.698;2022-07-03T10:44:49;1.67;;;1.40;;
14209;SDS011;7188;56.070;12.698;2022-07-03T10:50:09;4.68;;;1.50;;
14209;SDS011;7188;56.070;12.698;2022-07-03T10:52:36;3.60;;;1.95;;
14209;SDS011;7188;56.070;12.698;2022-07-03T10:55:03;4.68;;;1.60;;
14209;SDS011;7188;56.070;12.698;2022-07-03T10:57:31;3.65;;;1.70;;
14209;SDS011;7188;56.070;12.698;2022-07-03T10:59:58;4.13;;;1.70;;
14209;SDS011;7188;56.070;12.698;2022-07-03T11:02:26;3.40;;;1.63;;
14209;SDS011;7188;56.070;12.698;2022-07-03T11:07:24;2.72;;;1.67;;
14209;SDS011;7188;56.070;12.698;2022-07-03T11:20:37;5.75;;;1.80;;
14209;SDS011;7188;56.070;12.698;2022-07-03T11:26:00;2.63;;;1.75;;
14209;SDS011;7188;56.070;12.698;2022-07-03T11:28:50;3.30;;;2.15;;
14209;SDS011;7188;56.070;12.698;2022-07-03T11:31:36;4.13;;;2.00;;
14209;SDS011;7188;56.070;12.698;2022-07-03T11:34:07;2.60;;;1.65;;
14209;SDS011;7188;56.070;12.698;2022-07-03T11:36:33;2.67;;;1.98;;
14209;SDS011;7188;56.070;12.698;2022-07-03T11:41:26;2.90;;;2.28;;
14209;SDS011;7188;56.070;12.698;2022-07-03T11:43:54;3.15;;;2.17;;
14209;SDS011;7188;56.070;12.698;2022-07-03T11:46:22;16.40;;;3.20;;
14209;SDS011;7188;56.070;12.698;2022-07-03T11:48:49;5.07;;;2.30;;
14209;SDS011;7188;56.070;12.698;2022-07-03T11:51:29;11.60;;;2.92;;
14209;SDS011;7188;56.070;12.698;2022-07-03T11:53:54;7.65;;;2.33;;
14209;SDS011;7188;56.070;12.698;2022-07-03T11:56:20;5.13;;;2.13;;
14209;SDS011;7188;56.070;12.698;2022-07-03T11:58:46;4.05;;;1.90;;
14209;SDS011;7188;56.070;12.698;2022-07-03T12:03:52;1.95;;;1.60;;
14209;SDS011;7188;56.070;12.698;2022-07-03T12:09:25;2.42;;;1.92;;
14209;SDS011;7188;56.070;12.698;2022-07-03T12:12:04;2.42;;;1.38;;
14209;SDS011;7188;56.070;12.698;2022-07-03T12:14:44;2.28;;;1.90;;
14209;SDS011;7188;56.070;12.698;2022-07-03T12:17:20;2.35;;;1.98;;
14209;SDS011;7188;56.070;12.698;2022-07-03T12:22:26;19.67;;;3.42;;
14209;SDS011;7188;56.070;12.698;2022-07-03T12:25:08;4.70;;;2.28;;
14209;SDS011;7188;56.070;12.698;2022-07-03T12:27:40;11.20;;;3.05;;
14209;SDS011;7188;56.070;12.698;2022-07-03T12:30:10;2.28;;;2.17;;
14209;SDS011;7188;56.070;12.698;2022-07-03T12:32:47;27.27;;;4.28;;
14209;SDS011;7188;56.070;12.698;2022-07-03T12:35:13;15.70;;;3.15;;
14209;SDS011;7188;56.070;12.698;2022-07-03T12:37:45;25.10;;;4.63;;
14209;SDS011;7188;56.070;12.698;2022-07-03T12:40:11;15.50;;;3.53;;
14209;SDS011;7188;56.070;12.698;2022-07-03T12:42:50;37.47;;;4.55;;
14209;SDS011;7188;56.070;12.698;2022-07-03T12:45:20;23.63;;;4.55;;
14209;SDS011;7188;56.070;12.698;2022-07-03T12:48:04;40.13;;;4.60;;
14209;SDS011;7188;56.070;12.698;2022-07-03T12:50:43;26.08;;;3.92;;
14209;SDS011;7188;56.070;12.698;2022-07-03T12:53:10;14.73;;;3.42;;
14209;SDS011;7188;56.070;12.698;2022-07-03T12:55:50;33.58;;;3.88;;
14209;SDS011;7188;56.070;12.698;2022-07-03T12:58:16;25.20;;;3.70;;
14209;SDS011;7188;56.070;12.698;2022-07-03T13:01:07;14.35;;;3.35;;
14209;SDS011;7188;56.070;12.698;2022-07-03T13:03:52;28.67;;;4.63;;
14209;SDS011;7188;56.070;12.698;2022-07-03T13:06:19;14.07;;;2.47;;
14209;SDS011;7188;56.070;12.698;2022-07-03T13:09:00;33.13;;;4.53;;
14209;SDS011;7188;56.070;12.698;2022-07-03T13:14:00;17.55;;;2.58;;
14209;SDS011;7188;56.070;12.698;2022-07-03T13:16:36;13.75;;;3.30;;
14209;SDS011;7188;56.070;12.698;2022-07-03T13:19:04;17.27;;;3.65;;
14209;SDS011;7188;56.070;12.698;2022-07-03T13:21:31;39.13;;;4.88;;
14209;SDS011;7188;56.070;12.698;2022-07-03T13:23:56;38.38;;;5.30;;
14209;SDS011;7188;56.070;12.698;2022-07-03T13:26:22;13.30;;;2.63;;
14209;SDS011;7188;56.070;12.698;2022-07-03T13:28:48;18.98;;;3.40;;
14209;SDS011;7188;56.070;12.698;2022-07-03T13:31:13;19.83;;;3.15;;
14209;SDS011;7188;56.070;12.698;2022-07-03T13:33:39;3.40;;;1.45;;
14209;SDS011;7188;56.070;12.698;2022-07-03T13:36:05;5.63;;;1.90;;
14209;SDS011;7188;56.070;12.698;2022-07-03T13:38:31;7.13;;;1.98;;
14209;SDS011;7188;56.070;12.698;2022-07-03T13:40:56;3.45;;;1.10;;
14209;SDS011;7188;56.070;12.698;2022-07-03T13:43:22;7.03;;;1.35;;
14209;SDS011;7188;56.070;12.698;2022-07-03T13:45:47;2.55;;;1.20;;
14209;SDS011;7188;56.070;12.698;2022-07-03T13:48:13;1.67;;;1.52;;
14209;SDS011;7188;56.070;12.698;2022-07-03T13:50:42;2.40;;;1.33;;
14209;SDS011;7188;56.070;12.698;2022-07-03T13:53:08;1.98;;;1.50;;
14209;SDS011;7188;56.070;12.698;2022-07-03T13:55:34;1.45;;;1.35;;
14209;SDS011;7188;56.070;12.698;2022-07-03T13:58:00;1.60;;;1.50;;
14209;SDS011;7188;56.070;12.698;2022-07-03T14:00:29;1.77;;;1.42;;
14209;SDS011;7188;56.070;12.698;2022-07-03T14:02:58;2.05;;;1.73;;
14209;SDS011;7188;56.070;12.698;2022-07-03T14:05:24;2.05;;;1.13;;
14209;SDS011;7188;56.070;12.698;2022-07-03T14:07:49;1.10;;;1.10;;
14209;SDS011;7188;56.070;12.698;2022-07-03T14:10:15;1.85;;;1.27;;
14209;SDS011;7188;56.070;12.698;2022-07-03T14:12:41;46.55;;;4.82;;
14209;SDS011;7188;56.070;12.698;2022-07-03T14:15:07;5.72;;;1.88;;
14209;SDS011;7188;56.070;12.698;2022-07-03T14:17:33;20.85;;;2.47;;
14209;SDS011;7188;56.070;12.698;2022-07-03T14:19:58;11.32;;;1.98;;
14209;SDS011;7188;56.070;12.698;2022-07-03T14:22:24;4.55;;;1.58;;
14209;SDS011;7188;56.070;12.698;2022-07-03T14:24:50;5.85;;;1.60;;
14209;SDS011;7188;56.070;12.698;2022-07-03T14:27:15;4.97;;;1.75;;
14209;SDS011;7188;56.070;12.698;2022-07-03T14:29:59;2.33;;;1.30;;
14209;SDS011;7188;56.070;12.698;2022-07-03T14:32:43;9.43;;;2.65;;
14209;SDS011;7188;56.070;12.698;2022-07-03T14:35:09;19.30;;;3.47;;
14209;SDS011;7188;56.070;12.698;2022-07-03T14:37:35;11.43;;;3.00;;
14209;SDS011;7188;56.070;12.698;2022-07-03T14:40:00;16.30;;;2.63;;
14209;SDS011;7188;56.070;12.698;2022-07-03T14:42:26;10.65;;;1.92;;
14209;SDS011;7188;56.070;12.698;2022-07-03T14:44:51;14.88;;;3.60;;
14209;SDS011;7188;56.070;12.698;2022-07-03T14:47:17;19.73;;;3.15;;
14209;SDS011;7188;56.070;12.698;2022-07-03T14:49:43;6.93;;;1.88;;
14209;SDS011;7188;56.070;12.698;2022-07-03T14:52:09;2.42;;;1.73;;
14209;SDS011;7188;56.070;12.698;2022-07-03T14:54:36;2.50;;;1.20;;
14209;SDS011;7188;56.070;12.698;2022-07-03T14:57:06;10.43;;;2.42;;
14209;SDS011;7188;56.070;12.698;2022-07-03T15:05:27;6.13;;;1.70;;
14209;SDS011;7188;56.070;12.698;2022-07-03T15:10:44;11.48;;;1.88;;
14209;SDS011;7188;56.070;12.698;2022-07-03T15:13:10;3.22;;;1.80;;
14209;SDS011;7188;56.070;12.698;2022-07-03T15:15:38;13.07;;;2.67;;
14209;SDS011;7188;56.070;12.698;2022-07-03T15:18:05;12.32;;;2.85;;
14209;SDS011;7188;56.070;12.698;2022-07-03T15:20:33;2.25;;;2.00;;
14209;SDS011;7188;56.070;12.698;2022-07-03T15:23:01;16.08;;;2.88;;
14209;SDS011;7188;56.070;12.698;2022-07-03T15:25:28;7.38;;;2.33;;
14209;SDS011;7188;56.070;12.698;2022-07-03T15:27:56;2.67;;;2.00;;
14209;SDS011;7188;56.070;12.698;2022-07-03T15:30:22;6.13;;;2.20;;
14209;SDS011;7188;56.070;12.698;2022-07-03T15:32:49;2.22;;;2.05;;
14209;SDS011;7188;56.070;12.698;2022-07-03T15:35:16;12.70;;;3.72;;
14209;SDS011;7188;56.070;12.698;2022-07-03T15:37:53;13.63;;;3.15;;
14209;SDS011;7188;56.070;12.698;2022-07-03T15:43:25;9.70;;;2.50;;
14209;SDS011;7188;56.070;12.698;2022-07-03T15:48:53;3.20;;;1.70;;
14209;SDS011;7188;56.070;12.698;2022-07-03T15:51:37;3.80;;;2.33;;
14209;SDS011;7188;56.070;12.698;2022-07-03T15:54:09;4.07;;;2.75;;
14209;SDS011;7188;56.070;12.698;2022-07-03T15:56:37;2.92;;;2.30;;
14209;SDS011;7188;56.070;12.698;2022-07-03T15:59:12;3.33;;;2.83;;
14209;SDS011;7188;56.070;12.698;2022-07-03T16:01:51;2.38;;;2.13;;
14209;SDS011;7188;56.070;12.698;2022-07-03T16:07:26;8.02;;;2.75;;
14209;SDS011;7188;56.070;12.698;2022-07-03T16:09:53;4.95;;;3.25;;
14209;SDS011;7188;56.070;12.698;2022-07-03T16:12:20;4.47;;;2.92;;
14209;SDS011;7188;56.070;12.698;2022-07-03T16:14:49;7.15;;;4.07;;
14209;SDS011;7188;56.070;12.698;2022-07-03T16:17:16;4.40;;;2.90;;
14209;SDS011;7188;56.070;12.698;2022-07-03T16:19:45;4.93;;;3.22;;
14209;SDS011;7188;56.070;12.698;2022-07-03T16:22:12;3.65;;;3.22;;
14209;SDS011;7188;56.070;12.698;2022-07-03T16:24:38;3.28;;;2.83;;
14209;SDS011;7188;56.070;12.698;2022-07-03T16:27:05;3.53;;;3.22;;
14209;SDS011;7188;56.070;12.698;2022-07-03T16:29:31;4.85;;;2.83;;
14209;SDS011;7188;56.070;12.698;2022-07-03T16:31:58;6.82;;;3.70;;
14209;SDS011;7188;56.070;12.698;2022-07-03T16:34:34;2.65;;;2.53;;
14209;SDS011;7188;56.070;12.698;2022-07-03T16:37:06;5.43;;;3.65;;
14209;SDS011;7188;56.070;12.698;2022-07-03T16:39:34;4.43;;;3.25;;
14209;SDS011;7188;56.070;12.698;2022-07-03T16:42:01;3.58;;;2.83;;
14209;SDS011;7188;56.070;12.698;2022-07-03T16:44:33;4.47;;;3.67;;